Time;durP1;ratioP1;P1;durP2;ratioP2;P2;SDS_P1;SDS_P2;PMS_P1;PMS_P2;Temp;Humidity;BMP_temperature;BMP_pressure;BME280_temperature;BME280_humidity;BME280_pressure;Samples;Min_cycle;Max_cycle;Signal;HPM_P1;HPM_P2
2022/11/20 00:00:57;;;;;;;3.63;3.33;;;8.90;99.90;;;;;;5055249;28;20021;-75
2022/11/20 00:03:23;;;;;;;4.28;3.90;;;9.00;99.90;;;;;;5053673;28;20029;-74
2022/11/20 00:05:49;;;;;;;3.75;3.10;;;9.00;99.90;;;;;;5055044;28;20071;-75
2022/11/20 00:08:14;;;;;;;3.75;3.38;;;9.00;99.90;;;;;;5055083;28;20029;-75
2022/11/20 00:10:40;;;;;;;3.85;3.22;;;9.00;99.90;;;;;;5054857;28;20082;-75
2022/11/20 00:13:07;;;;;;;6.55;3.83;;;9.00;99.90;;;;;;5053568;28;20037;-75
2022/11/20 00:15:33;;;;;;;3.80;3.50;;;9.00;99.90;;;;;;5053132;28;20364;-75
2022/11/20 00:17:58;;;;;;;5.10;3.70;;;9.00;99.90;;;;;;5054197;28;20025;-74
2022/11/20 00:20:24;;;;;;;5.28;3.42;;;9.00;99.90;;;;;;5053386;28;20021;-74
2022/11/20 00:22:50;;;;;;;3.80;3.45;;;9.00;99.90;;;;;;5053704;28;20021;-75
2022/11/20 00:25:16;;;;;;;3.35;3.13;;;9.00;99.90;;;;;;5053329;28;20096;-75
2022/11/20 00:27:42;;;;;;;3.70;3.17;;;9.00;99.90;;;;;;5051637;28;20025;-74
2022/11/20 00:30:08;;;;;;;5.30;3.35;;;9.00;99.90;;;;;;5053241;28;20036;-74
2022/11/20 00:32:34;;;;;;;4.15;2.90;;;9.00;99.90;;;;;;5053166;28;20072;-74
2022/11/20 00:35:00;;;;;;;3.30;3.03;;;8.90;99.90;;;;;;5053576;28;20040;-75
2022/11/20 00:37:26;;;;;;;3.15;2.85;;;9.00;99.90;;;;;;5053161;28;20025;-75
2022/11/20 00:39:52;;;;;;;4.35;3.10;;;9.00;99.90;;;;;;5054388;28;20021;-74
2022/11/20 00:42:17;;;;;;;3.60;3.17;;;9.00;99.90;;;;;;5054228;28;20025;-74
2022/11/20 00:44:43;;;;;;;4.82;3.20;;;8.90;99.90;;;;;;5053204;28;20025;-74
2022/11/20 00:47:09;;;;;;;3.78;3.47;;;9.00;99.90;;;;;;5054237;28;20036;-75
2022/11/20 00:49:34;;;;;;;3.72;3.42;;;9.00;99.90;;;;;;5054224;28;20021;-74
2022/11/20 00:52:00;;;;;;;3.65;3.28;;;8.90;99.90;;;;;;5052716;28;20021;-74
2022/11/20 00:54:26;;;;;;;3.78;3.33;;;8.90;99.90;;;;;;5053927;28;20049;-75
2022/11/20 00:56:54;;;;;;;3.30;3.10;;;8.80;99.90;;;;;;5052670;28;20120;-75
2022/11/20 00:59:20;;;;;;;3.08;2.80;;;8.80;99.90;;;;;;5054224;28;20107;-75
2022/11/20 01:01:46;;;;;;;3.05;2.58;;;8.70;99.90;;;;;;5053782;28;20048;-75
2022/11/20 01:04:12;;;;;;;3.40;3.10;;;8.80;99.90;;;;;;5054067;28;20043;-75
2022/11/20 01:06:39;;;;;;;5.20;3.35;;;8.70;99.90;;;;;;5053906;28;20036;-74
2022/11/20 01:09:11;;;;;;;4.90;3.03;;;8.70;99.90;;;;;;5052098;28;20112;-75
2022/11/20 01:11:39;;;;;;;3.03;2.78;;;8.70;99.90;;;;;;5053456;28;20091;-74
2022/11/20 01:14:07;;;;;;;5.18;3.08;;;8.70;99.90;;;;;;5053180;28;20021;-74
2022/11/20 01:16:38;;;;;;;5.00;2.65;;;8.60;99.90;;;;;;5050650;28;20112;-75
2022/11/20 01:19:07;;;;;;;3.85;3.50;;;8.60;99.90;;;;;;5053274;28;20074;-75
2022/11/20 01:21:36;;;;;;;3.40;3.10;;;8.60;99.90;;;;;;5052121;28;20025;-77
2022/11/20 01:24:03;;;;;;;3.88;2.70;;;8.60;99.90;;;;;;5053369;28;20083;-77
2022/11/20 01:26:34;;;;;;;3.03;2.83;;;8.60;99.90;;;;;;5053347;28;20040;-78
2022/11/20 01:29:01;;;;;;;3.55;3.00;;;8.60;99.90;;;;;;5052057;28;20025;-78
2022/11/20 01:31:28;;;;;;;2.80;2.60;;;8.50;99.90;;;;;;5052017;28;20047;-77
2022/11/20 01:33:56;;;;;;;3.08;2.70;;;8.50;99.90;;;;;;5051937;28;20044;-78
2022/11/20 01:36:24;;;;;;;4.50;2.67;;;8.50;99.90;;;;;;5053030;28;20078;-77
2022/11/20 01:39:13;;;;;;;3.00;2.78;;;8.40;99.90;;;;;;5053449;28;20036;-77
2022/11/20 01:44:51;;;;;;;2.67;2.42;;;8.50;99.90;;;;;;5053602;28;20694;-77
2022/11/20 01:47:23;;;;;;;2.42;2.22;;;8.50;99.90;;;;;;5053263;28;20048;-77
2022/11/20 01:50:13;;;;;;;2.92;2.67;;;8.50;99.90;;;;;;5053130;28;20024;-77
2022/11/20 01:52:47;;;;;;;3.03;2.50;;;8.50;99.90;;;;;;5053142;28;20453;-76
2022/11/20 01:55:21;;;;;;;2.58;2.38;;;8.50;99.90;;;;;;5052923;28;20045;-76
2022/11/20 01:57:49;;;;;;;4.82;2.10;;;8.50;99.90;;;;;;5052956;28;20040;-76
2022/11/20 02:00:17;;;;;;;4.38;2.17;;;8.50;99.90;;;;;;5053061;28;20025;-76
2022/11/20 02:02:48;;;;;;;2.88;2.67;;;8.40;99.90;;;;;;5052908;28;20452;-77
2022/11/20 02:05:45;;;;;;;2.42;2.22;;;8.40;99.90;;;;;;5051789;28;20112;-76
2022/11/20 02:08:11;;;;;;;2.03;1.92;;;8.40;99.90;;;;;;5051667;28;20071;-78
2022/11/20 02:10:37;;;;;;;2.55;2.35;;;8.40;99.90;;;;;;5052866;28;20033;-79
2022/11/20 02:15:49;;;;;;;2.30;2.10;;;8.40;99.90;;;;;;5032892;28;20391;-79
2022/11/20 02:18:17;;;;;;;1.85;1.75;;;8.40;99.90;;;;;;5031407;28;20097;-79
2022/11/20 02:20:45;;;;;;;4.05;2.08;;;8.30;99.90;;;;;;5031439;28;20118;-79
2022/11/20 02:23:25;;;;;;;1.88;1.60;;;8.30;99.90;;;;;;5047687;28;20025;-79
2022/11/20 02:25:53;;;;;;;1.88;1.77;;;8.30;99.90;;;;;;5031369;28;20026;-79
2022/11/20 02:28:20;;;;;;;2.10;1.77;;;8.30;99.90;;;;;;5031356;28;20021;-77
2022/11/20 02:30:46;;;;;;;1.63;1.52;;;8.40;99.90;;;;;;5048055;28;20032;-79
2022/11/20 02:33:12;;;;;;;2.85;1.63;;;8.40;99.90;;;;;;5032885;28;20388;-79
2022/11/20 02:35:43;;;;;;;2.10;2.00;;;8.40;99.90;;;;;;5051562;28;20032;-76
2022/11/20 02:38:10;;;;;;;1.90;1.80;;;8.30;99.90;;;;;;5050485;28;20037;-76
2022/11/20 02:40:36;;;;;;;1.65;1.50;;;8.30;99.90;;;;;;5054081;28;20270;-79
2022/11/20 02:43:01;;;;;;;1.80;1.70;;;8.30;99.90;;;;;;5056589;28;20383;-79
2022/11/20 02:45:27;;;;;;;1.50;1.40;;;8.30;99.90;;;;;;5055389;28;20032;-79
2022/11/20 02:47:53;;;;;;;2.42;1.52;;;8.20;99.90;;;;;;5055257;28;20054;-77
2022/11/20 02:50:19;;;;;;;1.58;1.48;;;8.20;99.90;;;;;;5056593;28;20069;-79
2022/11/20 02:52:45;;;;;;;5.88;1.70;;;8.10;99.90;;;;;;5055135;28;20039;-79
2022/11/20 02:55:10;;;;;;;1.92;1.20;;;8.00;99.90;;;;;;5056270;28;20053;-79
2022/11/20 02:57:36;;;;;;;2.60;1.55;;;8.00;99.90;;;;;;5055068;28;20017;-79
2022/11/20 03:00:03;;;;;;;1.33;1.23;;;8.00;99.90;;;;;;5054940;28;20108;-79
2022/11/20 03:02:33;;;;;;;2.72;1.30;;;7.90;99.90;;;;;;5054964;28;20502;-79
2022/11/20 03:04:59;;;;;;;1.38;1.27;;;7.90;99.90;;;;;;5035231;28;20128;-79
2022/11/20 03:07:25;;;;;;;0.95;0.95;;;7.90;99.90;;;;;;5036399;28;20052;-79
2022/11/20 03:09:50;;;;;;;1.40;1.20;;;7.90;99.90;;;;;;5034940;28;20391;-79
2022/11/20 03:12:16;;;;;;;1.45;1.33;;;7.90;99.90;;;;;;5034916;28;20029;-79
2022/11/20 03:14:42;;;;;;;1.27;1.27;;;7.90;99.90;;;;;;5036303;28;20472;-79
2022/11/20 03:17:08;;;;;;;1.20;1.10;;;8.00;99.90;;;;;;5035906;28;20025;-79
2022/11/20 03:19:34;;;;;;;1.23;1.13;;;8.00;99.90;;;;;;5034873;28;20488;-79
2022/11/20 03:22:00;;;;;;;1.23;1.13;;;7.90;99.90;;;;;;5034757;28;20035;-79
2022/11/20 03:24:26;;;;;;;1.27;1.20;;;7.90;99.90;;;;;;5034749;28;20032;-79
2022/11/20 03:26:52;;;;;;;2.70;1.10;;;7.90;99.90;;;;;;5034564;28;20055;-79
2022/11/20 03:29:18;;;;;;;3.35;1.10;;;7.80;99.90;;;;;;5035856;28;20539;-78
2022/11/20 03:31:44;;;;;;;1.02;1.02;;;7.90;99.90;;;;;;5034496;28;20031;-79
2022/11/20 03:34:11;;;;;;;1.08;1.08;;;7.90;99.90;;;;;;5034570;28;20120;-79
2022/11/20 03:36:42;;;;;;;1.98;0.77;;;7.90;99.90;;;;;;5034479;28;20037;-79
2022/11/20 03:39:08;;;;;;;1.45;1.02;;;7.80;99.90;;;;;;5035710;28;20148;-79
2022/11/20 03:41:40;;;;;;;1.08;1.08;;;7.70;99.90;;;;;;5035657;28;20028;-78
2022/11/20 03:44:08;;;;;;;1.33;1.23;;;7.50;99.90;;;;;;5042904;28;20054;-79
2022/11/20 03:46:34;;;;;;;0.90;0.90;;;7.50;99.90;;;;;;5055399;28;20029;-79
2022/11/20 03:49:00;;;;;;;2.80;1.05;;;7.60;99.90;;;;;;5055329;28;20025;-79
2022/11/20 03:51:28;;;;;;;1.10;1.00;;;7.50;99.90;;;;;;5053930;28;20443;-79
2022/11/20 03:53:56;;;;;;;1.00;1.00;;;7.60;99.90;;;;;;5055064;28;20053;-79
2022/11/20 03:56:30;;;;;;;3.13;1.38;;;7.50;99.90;;;;;;5053840;28;20029;-79
2022/11/20 03:58:56;;;;;;;0.70;0.70;;;7.50;99.90;;;;;;5055172;28;20475;-78
2022/11/20 04:01:25;;;;;;;0.80;0.80;;;7.50;99.90;;;;;;5053046;28;20075;-78
2022/11/20 04:03:53;;;;;;;1.80;0.90;;;7.40;99.90;;;;;;5053813;28;20024;-78
2022/11/20 04:06:21;;;;;;;0.70;0.70;;;7.30;99.90;;;;;;5053742;28;20437;-79
2022/11/20 04:08:47;;;;;;;0.70;0.70;;;7.30;99.90;;;;;;5054897;28;20078;-79
2022/11/20 04:11:22;;;;;;;2.00;0.80;;;7.30;99.90;;;;;;5054660;28;20113;-79
2022/11/20 04:13:54;;;;;;;0.90;0.90;;;7.40;99.90;;;;;;5054890;28;20041;-78
2022/11/20 04:16:21;;;;;;;;;;;7.50;99.90;;;;;;5053132;28;20487;-79
2022/11/20 04:18:47;;;;;;;0.60;0.60;;;7.40;99.90;;;;;;5054751;28;20252;-79
2022/11/20 04:21:13;;;;;;;0.82;0.82;;;7.40;99.90;;;;;;5054731;28;20032;-79
2022/11/20 04:23:39;;;;;;;0.57;0.57;;;7.40;99.90;;;;;;5053644;28;20078;-79
2022/11/20 04:26:09;;;;;;;0.60;0.60;;;7.40;99.90;;;;;;5054761;28;20384;-79
2022/11/20 04:28:36;;;;;;;0.98;0.68;;;7.40;99.90;;;;;;5054718;28;20083;-79
2022/11/20 04:31:08;;;;;;;0.75;0.75;;;7.50;99.90;;;;;;5053417;28;20021;-79
2022/11/20 04:33:35;;;;;;;0.80;0.80;;;7.50;99.90;;;;;;5054669;28;20033;-79
2022/11/20 04:36:12;;;;;;;0.90;0.90;;;7.60;99.90;;;;;;5053241;28;20025;-79
2022/11/20 04:38:39;;;;;;;0.57;0.57;;;7.60;99.90;;;;;;5053256;28;20464;-79
2022/11/20 04:41:08;;;;;;;0.50;0.50;;;7.70;99.90;;;;;;5053112;28;20021;-79
2022/11/20 04:43:34;;;;;;;0.73;0.73;;;7.60;99.90;;;;;;5050312;28;20045;-79
2022/11/20 04:46:01;;;;;;;0.80;0.80;;;7.60;99.90;;;;;;5034554;28;20029;-79
2022/11/20 04:48:28;;;;;;;0.47;0.47;;;7.50;99.90;;;;;;5033215;28;20099;-78
2022/11/20 04:50:55;;;;;;;0.70;0.70;;;7.50;99.90;;;;;;5034157;28;20029;-79
2022/11/20 04:53:22;;;;;;;0.77;0.77;;;7.50;99.90;;;;;;5034298;28;20042;-79
2022/11/20 04:55:48;;;;;;;0.63;0.60;;;7.50;99.90;;;;;;5033089;28;20029;-78
2022/11/20 04:58:14;;;;;;;5.05;0.70;;;7.50;99.90;;;;;;5033052;28;20025;-79
2022/11/20 05:00:40;;;;;;;0.50;0.50;;;7.50;99.90;;;;;;5034121;28;20018;-79
2022/11/20 05:03:06;;;;;;;0.60;0.60;;;7.50;99.90;;;;;;5033753;28;20032;-79
2022/11/20 05:05:34;;;;;;;1.67;0.68;;;7.50;99.90;;;;;;5033994;28;20036;-78
2022/11/20 05:08:00;;;;;;;0.75;0.70;;;7.40;99.90;;;;;;5033869;28;20509;-79
2022/11/20 05:10:26;;;;;;;0.85;0.85;;;7.40;99.90;;;;;;5032706;28;20112;-79
2022/11/20 05:12:52;;;;;;;0.70;0.70;;;7.40;99.90;;;;;;5033794;28;20033;-79
2022/11/20 05:15:19;;;;;;;0.65;0.63;;;7.30;99.90;;;;;;5051094;28;20091;-79
2022/11/20 05:17:52;;;;;;;0.80;0.80;;;7.40;99.90;;;;;;5053785;28;20033;-79
2022/11/20 05:20:18;;;;;;;1.55;1.10;;;7.40;99.90;;;;;;5053636;28;20036;-79
2022/11/20 05:22:44;;;;;;;0.80;0.80;;;7.40;99.90;;;;;;5052364;28;20434;-79
2022/11/20 05:25:11;;;;;;;2.28;0.70;;;7.40;99.90;;;;;;5053683;28;20021;-79
2022/11/20 05:27:36;;;;;;;0.95;0.85;;;7.40;99.90;;;;;;5052463;28;20109;-79
2022/11/20 05:30:03;;;;;;;0.95;0.95;;;7.50;99.90;;;;;;5053648;28;20049;-79
2022/11/20 05:32:29;;;;;;;0.70;0.70;;;7.50;99.90;;;;;;5053404;28;20021;-79
2022/11/20 05:34:55;;;;;;;0.80;0.80;;;7.60;99.90;;;;;;5052252;28;20028;-79
2022/11/20 05:37:20;;;;;;;0.98;0.98;;;7.50;99.90;;;;;;5053158;28;20390;-79
2022/11/20 05:39:46;;;;;;;1.13;1.00;;;7.50;99.90;;;;;;5052201;28;20391;-79
2022/11/20 05:42:30;;;;;;;2.97;1.00;;;7.50;99.90;;;;;;5053282;28;20017;-79
2022/11/20 05:44:59;;;;;;;1.20;0.70;;;7.50;99.90;;;;;;5039080;28;20510;-79
2022/11/20 05:47:26;;;;;;;0.93;0.93;;;7.50;99.90;;;;;;5032015;28;20025;-78
2022/11/20 05:49:52;;;;;;;2.45;1.20;;;7.50;99.90;;;;;;5032076;28;20071;-78
2022/11/20 05:52:18;;;;;;;3.00;1.27;;;7.60;99.90;;;;;;5033149;28;20108;-79
2022/11/20 05:54:44;;;;;;;1.10;1.10;;;7.50;99.90;;;;;;5031928;28;20057;-78
2022/11/20 05:57:09;;;;;;;2.55;1.10;;;7.40;99.90;;;;;;5033214;28;20025;-78
2022/11/20 05:59:35;;;;;;;1.45;1.35;;;7.40;99.90;;;;;;5031945;28;20392;-78
2022/11/20 06:02:01;;;;;;;2.80;1.20;;;7.40;99.90;;;;;;5033024;28;20040;-78
2022/11/20 06:04:26;;;;;;;2.45;1.30;;;7.40;99.90;;;;;;5031769;28;20112;-79
2022/11/20 06:06:52;;;;;;;0.98;0.95;;;7.40;99.90;;;;;;5031777;28;20028;-78
2022/11/20 06:09:18;;;;;;;1.30;1.10;;;7.40;99.90;;;;;;5031805;28;20446;-78
2022/11/20 06:11:44;;;;;;;1.48;1.38;;;7.40;99.90;;;;;;5031720;28;20026;-79
2022/11/20 06:14:09;;;;;;;3.47;1.13;;;7.40;99.90;;;;;;5039895;28;20387;-77
2022/11/20 06:16:35;;;;;;;1.65;1.55;;;7.40;99.90;;;;;;5051535;28;20025;-79
2022/11/20 06:19:01;;;;;;;1.40;1.30;;;7.40;99.90;;;;;;5052793;28;20031;-78
2022/11/20 06:21:27;;;;;;;2.90;1.42;;;7.40;99.90;;;;;;5052665;28;20029;-78
2022/11/20 06:23:53;;;;;;;1.67;1.58;;;7.40;99.90;;;;;;5052947;28;20032;-78
2022/11/20 06:26:24;;;;;;;1.90;1.42;;;7.40;99.90;;;;;;5051555;28;20040;-78
2022/11/20 06:28:51;;;;;;;1.83;1.48;;;7.40;99.90;;;;;;5052795;28;20029;-78
2022/11/20 06:31:20;;;;;;;2.20;1.63;;;7.40;99.90;;;;;;5052693;28;20140;-78
2022/11/20 06:33:46;;;;;;;1.50;1.40;;;7.40;99.90;;;;;;5052663;28;20061;-79
2022/11/20 06:36:14;;;;;;;1.48;1.38;;;7.40;99.90;;;;;;5050965;28;20029;-79
2022/11/20 06:38:40;;;;;;;2.08;1.50;;;7.40;99.90;;;;;;5052761;28;20013;-78
2022/11/20 06:41:07;;;;;;;1.50;1.25;;;7.50;99.90;;;;;;5051304;28;20025;-79
2022/11/20 06:43:33;;;;;;;1.95;1.38;;;7.40;99.90;;;;;;5048426;28;20116;-78
2022/11/20 06:45:59;;;;;;;2.20;1.63;;;7.40;99.90;;;;;;5032729;28;20100;-79
2022/11/20 06:48:28;;;;;;;2.05;1.95;;;7.40;99.90;;;;;;5032708;28;20029;-79
2022/11/20 06:50:54;;;;;;;2.08;1.83;;;7.40;99.90;;;;;;5032647;28;20021;-78
2022/11/20 06:53:20;;;;;;;3.13;1.83;;;7.50;99.90;;;;;;5032451;28;20553;-78
2022/11/20 06:55:47;;;;;;;2.00;1.77;;;7.40;99.90;;;;;;5031224;28;20029;-79
2022/11/20 06:58:14;;;;;;;2.30;1.80;;;7.40;99.90;;;;;;5031352;28;20432;-79
2022/11/20 07:00:41;;;;;;;2.20;2.10;;;7.40;99.90;;;;;;5032484;28;20025;-78
2022/11/20 07:03:09;;;;;;;2.22;2.03;;;7.50;99.90;;;;;;5032434;28;20079;-79
2022/11/20 07:05:35;;;;;;;2.83;2.10;;;7.50;99.90;;;;;;5032462;28;20491;-78
2022/11/20 07:08:02;;;;;;;2.30;2.20;;;7.50;99.90;;;;;;5032444;28;20030;-79
2022/11/20 07:10:28;;;;;;;3.00;2.20;;;7.50;99.90;;;;;;5032312;28;20021;-78
2022/11/20 07:12:54;;;;;;;2.72;2.55;;;7.60;99.90;;;;;;5032363;28;20372;-79
2022/11/20 07:15:21;;;;;;;2.72;2.53;;;7.60;99.90;;;;;;5049678;28;20021;-78
2022/11/20 07:17:47;;;;;;;2.92;2.72;;;7.70;99.90;;;;;;5050931;28;20032;-79
2022/11/20 07:20:14;;;;;;;2.97;2.63;;;7.70;99.90;;;;;;5051908;28;20053;-79
2022/11/20 07:22:40;;;;;;;2.45;2.22;;;7.70;99.90;;;;;;5051933;28;20063;-78
2022/11/20 07:25:06;;;;;;;2.28;2.17;;;7.70;99.90;;;;;;5052096;28;20028;-79
2022/11/20 07:27:32;;;;;;;2.40;2.30;;;7.80;99.90;;;;;;5054606;28;20032;-79
2022/11/20 07:29:58;;;;;;;2.50;2.30;;;7.90;99.90;;;;;;5055825;28;20390;-76
2022/11/20 07:32:24;;;;;;;4.32;2.90;;;7.90;99.90;;;;;;5055742;28;20056;-76
2022/11/20 07:34:49;;;;;;;3.08;2.88;;;8.00;99.90;;;;;;5055419;28;20390;-76
2022/11/20 07:37:15;;;;;;;2.90;2.60;;;8.10;99.90;;;;;;5055372;28;20025;-76
2022/11/20 07:39:42;;;;;;;3.15;2.85;;;8.10;99.90;;;;;;5055202;28;20029;-76
2022/11/20 07:42:08;;;;;;;2.90;2.70;;;8.10;99.90;;;;;;5055265;28;20048;-76
2022/11/20 07:44:34;;;;;;;2.78;2.58;;;8.10;99.90;;;;;;5055225;28;20025;-76
2022/11/20 07:47:01;;;;;;;2.95;2.75;;;8.10;99.90;;;;;;5055401;28;20033;-78
2022/11/20 07:49:26;;;;;;;3.70;3.35;;;8.10;99.90;;;;;;5053999;28;20372;-78
2022/11/20 07:51:55;;;;;;;3.95;3.53;;;8.10;99.90;;;;;;5055113;28;20040;-78
2022/11/20 07:54:21;;;;;;;3.65;3.35;;;8.20;99.90;;;;;;5055081;28;20079;-78
2022/11/20 07:56:48;;;;;;;4.22;3.67;;;8.20;99.90;;;;;;5055190;28;20475;-78
2022/11/20 07:59:15;;;;;;;4.00;3.33;;;8.30;99.90;;;;;;5054026;28;20025;-78
2022/11/20 08:01:41;;;;;;;4.25;3.28;;;8.30;99.90;;;;;;5055205;28;20025;-78
2022/11/20 08:04:08;;;;;;;3.78;3.33;;;8.30;99.90;;;;;;5054011;28;20021;-78
2022/11/20 08:06:33;;;;;;;4.72;4.32;;;8.40;99.90;;;;;;5055205;28;20037;-78
2022/11/20 08:08:59;;;;;;;5.63;5.13;;;8.40;99.90;;;;;;5053717;28;20021;-78
2022/11/20 08:14:12;;;;;;;4.70;4.22;;;8.40;99.90;;;;;;5047516;28;20083;-78
2022/11/20 08:16:42;;;;;;;4.40;4.00;;;8.50;99.90;;;;;;5034997;28;20112;-78
2022/11/20 08:19:08;;;;;;;6.28;4.13;;;8.50;99.90;;;;;;5033747;28;20472;-78
2022/11/20 08:21:34;;;;;;;5.20;4.70;;;8.50;99.90;;;;;;5033650;28;20433;-78
2022/11/20 08:24:00;;;;;;;4.38;4.03;;;8.60;99.90;;;;;;5033539;28;20506;-78
2022/11/20 08:26:26;;;;;;;3.50;3.20;;;8.60;99.90;;;;;;5034909;28;20069;-78
2022/11/20 08:28:56;;;;;;;4.53;3.13;;;8.70;99.90;;;;;;5034686;28;20372;-78
2022/11/20 08:31:23;;;;;;;3.83;3.53;;;8.70;99.90;;;;;;5033374;28;20649;-78
2022/11/20 08:33:49;;;;;;;3.22;2.83;;;8.80;99.90;;;;;;5034674;28;20160;-78
2022/11/20 08:36:15;;;;;;;3.08;2.83;;;8.80;99.90;;;;;;5033488;28;20116;-78
2022/11/20 08:38:41;;;;;;;4.55;3.97;;;8.80;99.90;;;;;;5034170;28;20025;-79
2022/11/20 08:41:26;;;;;;;3.35;3.05;;;8.90;99.90;;;;;;5034549;28;20026;-78
2022/11/20 08:43:59;;;;;;;3.25;2.95;;;9.00;99.90;;;;;;5039858;28;20017;-78
2022/11/20 08:46:26;;;;;;;4.28;3.20;;;9.00;99.90;;;;;;5054495;28;20033;-78
2022/11/20 08:48:52;;;;;;;6.25;3.05;;;9.20;99.90;;;;;;5054445;28;20025;-78
2022/11/20 08:51:19;;;;;;;4.82;4.32;;;9.30;99.90;;;;;;5054190;28;20025;-78
2022/11/20 08:53:46;;;;;;;6.13;4.97;;;9.40;99.90;;;;;;5052836;28;20045;-79
2022/11/20 08:56:12;;;;;;;4.57;4.18;;;9.50;99.90;;;;;;5054155;28;20025;-78
2022/11/20 08:58:38;;;;;;;4.85;3.80;;;9.50;99.90;;;;;;5052921;28;20021;-78
2022/11/20 09:01:04;;;;;;;3.30;3.10;;;9.50;99.90;;;;;;5054024;28;20024;-78
2022/11/20 09:03:30;;;;;;;4.05;3.10;;;9.60;99.90;;;;;;5052854;28;20033;-78
2022/11/20 09:05:58;;;;;;;3.03;2.83;;;9.60;99.90;;;;;;5054058;28;20433;-76
2022/11/20 09:08:24;;;;;;;2.70;2.15;;;9.60;99.90;;;;;;5053902;28;20070;-77
2022/11/20 09:10:53;;;;;;;2.58;1.85;;;9.70;99.90;;;;;;5052438;28;20033;-78
2022/11/20 09:13:23;;;;;;;2.92;2.60;;;9.70;99.90;;;;;;5051649;28;20035;-78
2022/11/20 09:15:59;;;;;;;2.70;2.50;;;9.70;99.90;;;;;;5033843;28;20032;-76
2022/11/20 09:18:26;;;;;;;3.20;2.90;;;9.80;99.90;;;;;;5033785;28;20100;-76
2022/11/20 09:20:57;;;;;;;3.45;3.05;;;9.90;99.90;;;;;;5049383;28;20028;-78
2022/11/20 09:23:23;;;;;;;4.72;2.67;;;9.90;99.90;;;;;;5052390;28;20029;-78
2022/11/20 09:25:49;;;;;;;3.10;2.80;;;10.00;99.90;;;;;;5053295;28;20070;-78
2022/11/20 09:28:14;;;;;;;2.53;2.33;;;10.10;99.90;;;;;;5034847;28;20021;-77
2022/11/20 09:30:40;;;;;;;2.83;2.63;;;10.10;99.90;;;;;;5052452;28;20056;-76
2022/11/20 09:33:06;;;;;;;3.35;2.67;;;10.20;99.90;;;;;;5052339;28;20025;-76
2022/11/20 09:35:32;;;;;;;3.30;2.70;;;10.20;99.90;;;;;;5052104;28;20032;-76
2022/11/20 09:37:58;;;;;;;2.53;2.33;;;10.20;99.90;;;;;;5052300;28;20036;-76
2022/11/20 09:40:29;;;;;;;2.88;2.67;;;10.10;99.90;;;;;;5053436;28;20029;-76
2022/11/20 09:43:01;;;;;;;2.70;2.50;;;10.20;99.90;;;;;;5053598;28;20107;-76
2022/11/20 09:45:44;;;;;;;3.05;2.42;;;10.30;99.90;;;;;;5052084;28;20029;-76
2022/11/20 09:48:28;;;;;;;2.17;2.08;;;10.40;99.90;;;;;;5051899;28;20063;-79
2022/11/20 09:51:03;;;;;;;4.13;2.25;;;10.40;99.90;;;;;;5051322;28;20033;-78
2022/11/20 09:53:47;;;;;;;4.88;2.50;;;10.40;99.90;;;;;;5051710;28;20044;-78
2022/11/20 09:56:14;;;;;;;2.65;2.13;;;10.30;99.90;;;;;;5051759;28;20033;-79
2022/11/20 09:58:43;;;;;;;2.85;2.55;;;10.40;99.90;;;;;;5053237;28;20020;-79
2022/11/20 10:01:20;;;;;;;2.15;2.05;;;10.40;99.90;;;;;;5051778;28;20032;-78
2022/11/20 10:04:10;;;;;;;2.15;1.95;;;10.40;99.90;;;;;;5053055;28;20064;-79
2022/11/20 10:07:00;;;;;;;3.22;2.72;;;10.50;99.90;;;;;;5051725;28;20391;-76
2022/11/20 10:09:34;;;;;;;2.70;2.50;;;10.60;99.90;;;;;;5051667;28;20059;-76
2022/11/20 10:12:02;;;;;;;3.28;2.47;;;10.60;99.90;;;;;;5052568;28;20032;-79
2022/11/20 10:15:04;;;;;;;2.53;2.33;;;10.60;99.90;;;;;;5052604;28;20108;-78
2022/11/20 10:18:00;;;;;;;2.40;2.30;;;10.70;99.90;;;;;;5044319;28;20048;-74
2022/11/20 10:21:01;;;;;;;2.65;2.45;;;10.80;99.90;;;;;;5052390;28;20036;-77
2022/11/20 10:23:56;;;;;;;2.97;2.42;;;10.80;99.90;;;;;;5052982;28;20502;-77
2022/11/20 10:26:40;;;;;;;2.35;2.15;;;10.80;99.90;;;;;;5052586;28;20029;-75
2022/11/20 10:29:16;;;;;;;3.30;3.00;;;10.80;99.90;;;;;;5032811;28;20026;-74
2022/11/20 10:31:57;;;;;;;2.03;1.92;;;10.80;99.90;;;;;;5032546;28;20105;-74
2022/11/20 10:34:55;;;;;;;2.20;2.10;;;10.90;99.90;;;;;;5032717;28;20017;-74
2022/11/20 10:37:26;;;;;;;2.97;2.67;;;10.90;99.90;;;;;;5041343;28;20056;-77
2022/11/20 10:40:06;;;;;;;3.47;2.20;;;10.90;99.90;;;;;;5058828;28;20382;-75
2022/11/20 10:42:44;;;;;;;2.72;1.85;;;10.90;99.90;;;;;;5072839;28;20056;-77
2022/11/20 10:45:22;;;;;;;1.95;1.85;;;11.00;99.90;;;;;;5055152;28;20094;-74
2022/11/20 10:47:48;;;;;;;2.80;2.05;;;11.00;99.90;;;;;;5049675;28;20026;-74
2022/11/20 10:50:19;;;;;;;1.55;1.45;;;11.00;99.90;;;;;;5051213;28;20555;-74
2022/11/20 10:52:50;;;;;;;1.50;1.40;;;11.30;99.90;;;;;;5052384;28;20125;-74
2022/11/20 10:55:35;;;;;;;2.22;1.83;;;11.20;99.90;;;;;;5052395;28;20112;-74
2022/11/20 10:58:07;;;;;;;1.77;1.45;;;11.30;99.90;;;;;;5052157;28;20025;-74
2022/11/20 11:00:33;;;;;;;2.30;2.10;;;11.50;99.90;;;;;;5050938;28;20013;-74
2022/11/20 11:03:02;;;;;;;2.03;1.60;;;11.60;99.90;;;;;;5056195;28;20047;-74
2022/11/20 11:05:37;;;;;;;2.42;2.00;;;11.70;99.90;;;;;;5054615;28;20017;-74
2022/11/20 11:08:05;;;;;;;1.73;1.63;;;11.70;99.90;;;;;;5056192;28;20434;-75
2022/11/20 11:10:53;;;;;;;1.60;1.50;;;11.80;99.90;;;;;;5055234;28;20039;-74
2022/11/20 11:13:24;;;;;;;3.03;2.33;;;11.90;99.90;;;;;;5048687;28;20490;-74
2022/11/20 11:15:50;;;;;;;2.53;1.75;;;11.90;99.90;;;;;;5071403;28;20025;-74
2022/11/20 11:18:34;;;;;;;1.50;1.40;;;12.00;99.90;;;;;;5057556;28;20025;-74
2022/11/20 11:21:03;;;;;;;1.70;1.60;;;12.00;99.90;;;;;;5042177;28;20017;-74
2022/11/20 11:23:36;;;;;;;1.63;1.52;;;12.00;99.90;;;;;;5052297;28;20056;-74
2022/11/20 11:26:05;;;;;;;1.70;1.60;;;12.10;99.90;;;;;;5052416;28;20017;-76
2022/11/20 11:28:31;;;;;;;2.10;2.00;;;12.10;99.90;;;;;;5051906;28;20021;-76
2022/11/20 11:30:57;;;;;;;1.70;1.60;;;12.20;99.90;;;;;;5050674;28;20032;-76
2022/11/20 11:33:24;;;;;;;3.17;2.63;;;12.20;99.90;;;;;;5052227;28;20029;-76
2022/11/20 11:35:57;;;;;;;2.03;1.92;;;12.20;99.90;;;;;;5050124;28;20029;-76
2022/11/20 11:38:30;;;;;;;1.35;1.25;;;12.20;99.90;;;;;;5048746;28;20394;-76
2022/11/20 11:40:57;;;;;;;2.00;1.90;;;12.30;99.90;;;;;;5053868;28;20399;-76
2022/11/20 11:46:20;;;;;;;1.70;1.60;;;12.30;99.90;;;;;;5050115;28;20040;-75
2022/11/20 11:49:00;;;;;;;1.85;1.75;;;12.40;99.90;;;;;;5051314;28;20082;-74
2022/11/20 11:51:38;;;;;;;1.88;1.40;;;12.40;99.90;;;;;;5051104;28;20029;-74
2022/11/20 11:54:23;;;;;;;2.42;1.55;;;12.40;99.90;;;;;;5053304;28;20067;-74
2022/11/20 11:56:50;;;;;;;2.30;2.13;;;12.40;99.90;;;;;;5051260;28;20021;-74
2022/11/20 11:59:39;;;;;;;1.80;1.70;;;12.50;99.90;;;;;;5053803;28;20037;-74
2022/11/20 12:02:38;;;;;;;2.22;1.95;;;12.50;99.90;;;;;;5039924;28;20589;-75
2022/11/20 12:05:25;;;;;;;3.45;2.20;;;12.50;99.90;;;;;;5055782;28;20053;-74
2022/11/20 12:07:59;;;;;;;2.40;2.08;;;12.60;99.90;;;;;;5049230;28;20029;-74
2022/11/20 12:10:53;;;;;;;3.92;3.22;;;12.50;99.90;;;;;;5050233;28;20029;-75
2022/11/20 12:13:34;;;;;;;2.42;2.22;;;12.60;99.90;;;;;;5049846;28;20025;-75
2022/11/20 12:16:01;;;;;;;2.90;2.70;;;12.60;99.90;;;;;;5052628;28;20065;-74
2022/11/20 12:18:28;;;;;;;2.88;2.67;;;12.60;99.90;;;;;;5053673;28;20262;-75
2022/11/20 12:21:15;;;;;;;5.82;2.92;;;12.60;99.90;;;;;;5052810;28;20021;-75
2022/11/20 12:23:51;;;;;;;3.22;2.97;;;12.50;99.90;;;;;;5040625;28;20021;-75
2022/11/20 12:26:47;;;;;;;3.33;3.03;;;12.50;99.90;;;;;;5051870;28;20037;-75
2022/11/20 12:29:32;;;;;;;3.45;3.15;;;12.50;99.90;;;;;;5052096;28;20399;-75
2022/11/20 12:32:16;;;;;;;6.28;3.35;;;12.50;99.90;;;;;;5052804;28;20479;-75
2022/11/20 12:35:00;;;;;;;3.72;3.40;;;12.50;99.90;;;;;;5051975;28;20090;-75
2022/11/20 12:37:41;;;;;;;4.35;3.20;;;12.50;99.90;;;;;;5051880;28;20060;-75
2022/11/20 12:40:43;;;;;;;3.33;3.08;;;12.50;99.90;;;;;;5050439;28;20542;-74
2022/11/20 12:46:25;;;;;;;4.40;3.92;;;12.50;99.90;;;;;;5052376;28;20090;-75
2022/11/20 12:49:12;;;;;;;7.82;5.45;;;12.50;99.90;;;;;;5051730;28;20033;-74
2022/11/20 12:51:54;;;;;;;6.43;4.93;;;12.40;99.90;;;;;;5052179;28;20036;-75
2022/11/20 12:54:54;;;;;;;4.28;3.88;;;12.50;99.90;;;;;;5051470;28;20413;-74
2022/11/20 12:57:25;;;;;;;5.10;4.60;;;12.50;99.90;;;;;;5049861;28;20044;-75
2022/11/20 13:00:04;;;;;;;6.10;4.93;;;12.40;99.90;;;;;;5049235;28;20027;-75
2022/11/20 13:02:36;;;;;;;5.38;4.65;;;12.40;99.90;;;;;;5048876;28;20125;-75
2022/11/20 13:05:41;;;;;;;5.80;4.53;;;12.40;99.90;;;;;;5050981;28;20021;-74
2022/11/20 13:08:37;;;;;;;5.18;4.68;;;12.40;99.90;;;;;;5049629;28;20410;-74
2022/11/20 13:11:24;;;;;;;5.90;5.28;;;12.40;99.90;;;;;;5046504;28;20070;-74
2022/11/20 13:14:21;;;;;;;6.47;5.38;;;12.40;99.90;;;;;;5048065;28;20104;-75
2022/11/20 13:17:24;;;;;;;6.63;5.65;;;12.40;99.90;;;;;;5051044;28;20079;-76
2022/11/20 13:19:53;;;;;;;7.40;5.60;;;12.40;99.90;;;;;;5048319;28;20395;-77
2022/11/20 13:22:42;;;;;;;8.50;6.63;;;12.40;99.90;;;;;;5047578;28;20044;-77
2022/11/20 13:25:10;;;;;;;14.77;7.30;;;12.40;99.90;;;;;;5045450;28;20021;-76
2022/11/20 13:27:46;;;;;;;12.02;7.55;;;12.40;99.90;;;;;;5049636;28;20114;-76